createdAt,value
2023-05-20T00:02:16.322Z,13.43
2023-05-20T00:04:46.393Z,14.75
2023-05-20T00:07:28.151Z,13.63
2023-05-20T00:10:21.124Z,11.35
2023-05-20T00:12:59.509Z,15.38
2023-05-20T00:15:29.049Z,13.13
2023-05-20T00:18:02.125Z,13.43
2023-05-20T00:20:31.548Z,11.88
2023-05-20T00:23:02.387Z,13.02
2023-05-20T00:25:37.995Z,13.68
2023-05-20T00:28:12.463Z,14.52
2023-05-20T00:30:56.749Z,13.40
2023-05-20T00:33:43.065Z,13.48
2023-05-20T00:36:15.254Z,14.45
2023-05-20T00:38:50.617Z,13.40
2023-05-20T00:41:56.794Z,15.80
2023-05-20T00:44:41.347Z,13.25
2023-05-20T00:47:22.967Z,13.40
2023-05-20T00:50:16.775Z,12.85
2023-05-20T00:52:46.810Z,13.18
2023-05-20T00:55:22.607Z,14.10
2023-05-20T00:58:21.279Z,14.48
2023-05-20T01:01:08.258Z,11.65
2023-05-20T01:03:42.793Z,12.57
2023-05-20T01:06:13.240Z,12.70
2023-05-20T01:08:44.772Z,14.77
2023-05-20T01:11:18.099Z,13.18
2023-05-20T01:14:02.554Z,13.38
2023-05-20T01:16:51.477Z,12.68
2023-05-20T01:19:47.781Z,13.95
2023-05-20T01:22:28.520Z,11.43
2023-05-20T01:24:56.735Z,11.30
2023-05-20T01:27:35.192Z,14.57
2023-05-20T01:30:32.176Z,11.90
2023-05-20T01:33:26.186Z,13.13
2023-05-20T01:35:54.793Z,13.02
2023-05-20T01:38:30.329Z,12.93
2023-05-20T01:41:15.196Z,13.85
2023-05-20T01:43:46.672Z,12.15
2023-05-20T01:46:18.980Z,16.13
2023-05-20T01:48:47.111Z,12.70
2023-05-20T01:51:29.388Z,16.67
2023-05-20T01:54:17.786Z,16.92
2023-05-20T01:56:49.669Z,16.02
2023-05-20T01:59:18.831Z,17.70
2023-05-20T02:01:48.032Z,16.50
2023-05-20T02:04:26.436Z,18.67
2023-05-20T02:07:12.839Z,18.25
2023-05-20T02:10:15.603Z,20.92
2023-05-20T02:12:45.054Z,17.15
2023-05-20T02:15:31.732Z,18.38
2023-05-20T02:18:27.088Z,19.30
2023-05-20T02:21:08.645Z,19.45
2023-05-20T02:26:28.225Z,21.40
2023-05-20T02:28:59.442Z,22.75
2023-05-20T02:31:29.932Z,18.52
2023-05-20T02:34:18.550Z,21.50
2023-05-20T02:37:13.083Z,23.02
2023-05-20T02:43:02.989Z,25.58
2023-05-20T02:45:57.948Z,26.40
2023-05-20T02:48:52.254Z,27.17
2023-05-20T02:51:20.570Z,28.10
2023-05-20T02:53:49.734Z,27.25
2023-05-20T02:56:28.521Z,27.98
2023-05-20T02:59:07.816Z,28.65
2023-05-20T03:01:55.466Z,33.17
2023-05-20T03:04:40.524Z,30.33
2023-05-20T03:07:19.210Z,30.58
2023-05-20T03:10:12.371Z,32.42
2023-05-20T03:13:03.382Z,33.33
2023-05-20T03:15:52.016Z,31.77
2023-05-20T03:18:35.119Z,32.60
2023-05-20T03:21:18.891Z,32.03
2023-05-20T03:23:48.534Z,39.15
2023-05-20T03:26:22.849Z,36.17
2023-05-20T03:28:53.930Z,37.45
2023-05-20T03:31:41.381Z,39.67
2023-05-20T03:34:13.651Z,42.03
2023-05-20T03:40:00.017Z,37.53
2023-05-20T03:42:37.152Z,37.38
2023-05-20T03:45:33.354Z,38.95
2023-05-20T03:48:02.982Z,40.28
2023-05-20T03:50:32.856Z,36.60
2023-05-20T03:53:18.870Z,39.15
2023-05-20T03:55:50.992Z,40.58
2023-05-20T03:58:27.770Z,38.13
2023-05-20T04:01:14.785Z,37.05
2023-05-20T04:03:49.068Z,39.28
2023-05-20T04:06:42.720Z,38.50
2023-05-20T04:09:17.909Z,38.35
2023-05-20T04:12:05.112Z,39.15
2023-05-20T04:14:51.582Z,38.40
2023-05-20T04:17:21.127Z,46.00
2023-05-20T04:19:49.959Z,40.22
2023-05-20T04:22:25.756Z,40.03
2023-05-20T04:24:54.782Z,42.90
2023-05-20T04:27:25.214Z,40.35
2023-05-20T04:29:56.665Z,41.05
2023-05-20T04:35:31.456Z,38.75
2023-05-20T04:38:18.679Z,41.50
2023-05-20T04:40:50.105Z,38.80
2023-05-20T04:46:07.453Z,39.88
2023-05-20T04:48:49.505Z,42.22
2023-05-20T04:51:43.685Z,47.08
2023-05-20T04:54:22.126Z,37.65
2023-05-20T04:57:03.214Z,34.85
2023-05-20T04:59:39.661Z,34.75
2023-05-20T05:02:12.301Z,41.67
2023-05-20T05:04:50.716Z,39.25
2023-05-20T05:07:26.271Z,37.78
2023-05-20T05:10:25.089Z,38.45
2023-05-20T05:13:19.506Z,39.00
2023-05-20T05:16:03.590Z,33.45
2023-05-20T05:18:33.922Z,32.97
2023-05-20T05:21:24.897Z,32.67
2023-05-20T05:23:58.500Z,34.10
2023-05-20T05:26:28.744Z,32.83
2023-05-20T05:29:11.793Z,30.95
2023-05-20T05:31:48.486Z,33.33
2023-05-20T05:34:32.091Z,30.00
2023-05-20T05:37:16.863Z,31.00
2023-05-20T05:40:12.412Z,30.52
2023-05-20T05:42:59.748Z,35.05
2023-05-20T05:45:27.874Z,29.58
2023-05-20T05:48:03.121Z,30.60
2023-05-20T05:51:02.663Z,28.92
2023-05-20T05:53:31.921Z,33.15
2023-05-20T05:56:18.631Z,30.45
2023-05-20T05:59:01.359Z,29.85
2023-05-20T06:01:42.742Z,28.80
2023-05-20T06:04:36.827Z,27.70
2023-05-20T06:07:06.145Z,32.00
2023-05-20T06:09:42.283Z,27.42
2023-05-20T06:12:22.693Z,35.95
2023-05-20T06:15:13.762Z,31.42
2023-05-20T06:17:48.179Z,34.72
2023-05-20T06:20:35.602Z,34.35
2023-05-20T06:23:08.978Z,32.50
2023-05-20T06:25:44.615Z,29.83
2023-05-20T06:28:19.137Z,31.35
2023-05-20T06:30:49.663Z,34.15
2023-05-20T06:33:22.056Z,32.13
2023-05-20T06:35:55.301Z,33.38
2023-05-20T06:38:26.512Z,38.70
2023-05-20T06:41:07.296Z,39.20
2023-05-20T06:43:38.699Z,39.75
2023-05-20T06:48:44.220Z,30.88
2023-05-20T06:54:19.986Z,37.67
2023-05-20T06:56:55.140Z,39.83
2023-05-20T06:59:29.296Z,40.50
2023-05-20T07:02:09.452Z,39.35
2023-05-20T07:04:48.147Z,35.38
2023-05-20T07:07:27.766Z,39.42
2023-05-20T07:09:57.083Z,38.22
2023-05-20T07:12:39.328Z,39.92
2023-05-20T07:15:26.273Z,35.17
2023-05-20T07:18:27.599Z,38.42
2023-05-20T07:21:24.343Z,36.75
2023-05-20T07:23:53.746Z,33.03
2023-05-20T07:26:28.094Z,35.20
2023-05-20T07:29:04.614Z,34.53
2023-05-20T07:34:51.048Z,32.67
2023-05-20T07:37:19.567Z,33.67
2023-05-20T07:39:51.823Z,31.50
2023-05-20T07:42:19.832Z,31.45
2023-05-20T07:45:01.330Z,34.13
2023-05-20T07:50:28.844Z,31.25
2023-05-20T07:53:01.963Z,33.58
2023-05-20T07:55:56.920Z,34.28
2023-05-20T07:58:35.987Z,35.10
2023-05-20T08:01:34.047Z,36.45
2023-05-20T08:04:20.496Z,32.70
2023-05-20T08:06:51.338Z,34.20
2023-05-20T08:09:25.788Z,32.28
2023-05-20T08:12:00.320Z,34.95
2023-05-20T08:14:48.188Z,35.25
2023-05-20T08:17:23.773Z,32.83
2023-05-20T08:20:16.969Z,33.97
2023-05-20T08:22:47.158Z,29.08
2023-05-20T08:25:29.708Z,27.17
2023-05-20T08:28:27.911Z,28.13
2023-05-20T08:31:11.507Z,26.85
2023-05-20T08:33:58.248Z,27.15
2023-05-20T08:36:28.423Z,28.23
2023-05-20T08:38:57.962Z,26.83
2023-05-20T08:41:38.178Z,26.08
2023-05-20T08:44:22.082Z,29.52
2023-05-20T08:46:52.116Z,24.17
2023-05-20T08:49:27.674Z,25.15
2023-05-20T08:52:01.816Z,24.55
2023-05-20T08:54:39.414Z,23.38
2023-05-20T08:57:07.497Z,24.35
2023-05-20T08:59:48.455Z,22.45
2023-05-20T09:02:31.098Z,24.65
2023-05-20T09:05:06.656Z,25.67
2023-05-20T09:07:46.163Z,22.75
2023-05-20T09:10:51.822Z,24.45
2023-05-20T09:13:36.025Z,21.92
2023-05-20T09:16:04.753Z,25.23
2023-05-20T09:19:01.253Z,23.10
2023-05-20T09:21:30.643Z,24.27
2023-05-20T09:24:25.978Z,24.90
2023-05-20T09:27:13.266Z,21.42
2023-05-20T09:29:41.593Z,19.25
2023-05-20T09:32:41.302Z,24.20
2023-05-20T09:35:34.367Z,23.20
2023-05-20T09:38:06.125Z,22.60
2023-05-20T09:40:45.551Z,18.08
2023-05-20T09:43:45.051Z,18.98
2023-05-20T09:46:31.671Z,25.50
2023-05-20T09:49:11.788Z,19.63
2023-05-20T09:52:00.804Z,19.58
2023-05-20T09:54:37.656Z,21.05
2023-05-20T09:57:24.697Z,22.58
2023-05-20T09:59:59.855Z,19.02
2023-05-20T10:02:30.332Z,21.63
2023-05-20T10:05:15.551Z,20.50
2023-05-20T10:08:05.778Z,21.60
2023-05-20T10:11:04.988Z,23.88
2023-05-20T10:13:40.371Z,22.08
2023-05-20T10:16:15.760Z,18.10
2023-05-20T10:18:56.457Z,21.90
2023-05-20T10:21:27.589Z,19.20
2023-05-20T10:26:48.572Z,21.95
2023-05-20T10:29:54.532Z,21.15
2023-05-20T10:32:40.840Z,19.08
2023-05-20T10:35:12.209Z,19.65
2023-05-20T10:37:49.682Z,20.10
2023-05-20T10:40:27.144Z,21.08
2023-05-20T10:43:02.556Z,19.45
2023-05-20T10:46:10.559Z,17.88
2023-05-20T10:49:02.058Z,17.33
2023-05-20T10:51:37.777Z,17.45
2023-05-20T10:54:15.873Z,16.27
2023-05-20T10:56:53.407Z,15.45
2023-05-20T10:59:26.000Z,18.73
2023-05-20T11:02:00.922Z,14.75
2023-05-20T11:04:41.465Z,18.58
2023-05-20T11:07:13.863Z,20.30
2023-05-20T11:09:54.616Z,16.70
2023-05-20T11:12:23.400Z,19.42
2023-05-20T11:14:59.706Z,17.95
2023-05-20T11:17:27.917Z,18.27
2023-05-20T11:20:04.086Z,18.52
2023-05-20T11:22:33.258Z,16.95
2023-05-20T11:25:08.839Z,18.80
2023-05-20T11:31:13.673Z,17.45
2023-05-20T11:33:48.157Z,17.73
2023-05-20T11:36:36.713Z,15.73
2023-05-20T11:39:24.156Z,16.85
2023-05-20T11:42:05.668Z,16.80
2023-05-20T11:44:39.816Z,17.92
2023-05-20T11:47:23.145Z,19.63
2023-05-20T11:50:02.303Z,18.15
2023-05-20T11:52:34.910Z,17.40
2023-05-20T11:55:05.752Z,23.08
2023-05-20T11:58:05.955Z,18.52
2023-05-20T12:00:52.896Z,18.27
2023-05-20T12:03:38.446Z,18.08
2023-05-20T12:06:25.770Z,19.33
2023-05-20T12:08:57.967Z,19.70
2023-05-20T12:11:42.966Z,20.60
2023-05-20T12:14:11.332Z,18.15
2023-05-20T12:16:55.169Z,19.00
2023-05-20T12:19:53.275Z,17.30
2023-05-20T12:22:23.679Z,17.17
2023-05-20T12:25:12.478Z,17.92
2023-05-20T12:27:49.857Z,19.92
2023-05-20T12:30:31.573Z,17.98
2023-05-20T12:33:08.150Z,21.23
2023-05-20T12:35:43.492Z,16.85
2023-05-20T12:38:35.200Z,17.65
2023-05-20T12:41:17.677Z,16.15
2023-05-20T12:44:04.993Z,20.48
2023-05-20T12:46:35.111Z,16.55
2023-05-20T12:49:04.714Z,17.30
2023-05-20T12:51:37.891Z,22.33
2023-05-20T12:54:19.005Z,17.67
2023-05-20T12:56:51.062Z,15.27
2023-05-20T12:59:35.689Z,16.90
2023-05-20T13:02:04.479Z,19.05
2023-05-20T13:04:34.746Z,20.83
2023-05-20T13:07:04.447Z,18.67
2023-05-20T13:09:34.809Z,17.85
2023-05-20T13:12:17.777Z,21.67
2023-05-20T13:14:47.197Z,20.73
2023-05-20T13:17:17.883Z,21.70
2023-05-20T13:20:02.552Z,22.05
2023-05-20T13:22:33.389Z,19.25
2023-05-20T13:25:26.079Z,21.52
2023-05-20T13:27:57.953Z,18.30
2023-05-20T13:30:30.514Z,22.63
2023-05-20T13:33:00.064Z,20.23
2023-05-20T13:36:06.635Z,22.65
2023-05-20T13:41:47.424Z,24.08
2023-05-20T13:44:46.810Z,20.17
2023-05-20T13:47:17.106Z,21.25
2023-05-20T13:49:45.538Z,21.58
2023-05-20T13:52:18.000Z,22.77
2023-05-20T13:54:53.510Z,22.50
2023-05-20T13:57:32.457Z,19.80
2023-05-20T14:00:15.197Z,20.30
2023-05-20T14:03:02.769Z,26.30
2023-05-20T14:05:50.241Z,22.38
2023-05-20T14:08:37.013Z,19.67
2023-05-20T14:11:07.517Z,20.80
2023-05-20T14:13:37.823Z,22.13
2023-05-20T14:16:16.539Z,21.37
2023-05-20T14:19:10.093Z,21.05
2023-05-20T14:22:06.269Z,19.88
2023-05-20T14:24:34.646Z,23.13
2023-05-20T14:27:17.610Z,18.40
2023-05-20T14:29:48.340Z,16.95
2023-05-20T14:32:25.949Z,16.52
2023-05-20T14:35:01.986Z,18.35
2023-05-20T14:37:35.353Z,24.98
2023-05-20T14:40:06.177Z,16.73
2023-05-20T14:42:49.616Z,17.40
2023-05-20T14:45:19.031Z,20.00
2023-05-20T14:47:48.204Z,18.02
2023-05-20T14:50:16.792Z,16.80
2023-05-20T14:52:49.447Z,20.63
2023-05-20T14:55:19.538Z,17.08
2023-05-20T14:57:55.138Z,18.83
2023-05-20T15:00:24.834Z,15.38
2023-05-20T15:03:00.575Z,16.15
2023-05-20T15:05:42.863Z,13.68
2023-05-20T15:08:16.141Z,17.42
2023-05-20T15:10:44.340Z,15.35
2023-05-20T15:13:15.671Z,16.17
2023-05-20T15:15:46.321Z,16.88
2023-05-20T15:18:16.444Z,16.52
2023-05-20T15:20:46.824Z,19.80
2023-05-20T15:23:38.794Z,14.13
2023-05-20T15:26:08.074Z,12.38
2023-05-20T15:28:37.560Z,14.07
2023-05-20T15:31:08.035Z,12.63
2023-05-20T15:33:40.424Z,11.80
2023-05-20T15:36:09.545Z,14.82
2023-05-20T15:38:41.088Z,18.38
2023-05-20T15:41:15.093Z,14.25
2023-05-20T15:43:46.543Z,18.73
2023-05-20T15:46:31.375Z,12.95
2023-05-20T15:49:01.606Z,18.92
2023-05-20T15:51:30.690Z,18.67
2023-05-20T15:54:07.260Z,16.38
2023-05-20T15:56:38.514Z,16.55
2023-05-20T15:59:07.258Z,15.65
2023-05-20T16:01:40.381Z,15.38
2023-05-20T16:04:15.004Z,14.93
2023-05-20T16:06:44.131Z,18.20
2023-05-20T16:09:13.492Z,14.63
2023-05-20T16:11:50.429Z,13.00
2023-05-20T16:14:19.343Z,16.23
2023-05-20T16:16:48.135Z,12.60
2023-05-20T16:19:21.810Z,13.05
2023-05-20T16:21:52.272Z,16.90
2023-05-20T16:24:42.350Z,14.13
2023-05-20T16:27:12.186Z,15.07
2023-05-20T16:29:44.623Z,16.70
2023-05-20T16:32:26.062Z,13.90
2023-05-20T16:35:03.831Z,16.20
2023-05-20T16:37:55.740Z,13.38
2023-05-20T16:40:38.563Z,13.23
2023-05-20T16:43:09.006Z,11.93
2023-05-20T16:45:41.564Z,14.02
2023-05-20T16:48:13.788Z,14.25
2023-05-20T16:50:43.045Z,12.23
2023-05-20T16:53:16.303Z,14.63
2023-05-20T16:55:53.350Z,15.52
2023-05-20T16:58:25.497Z,17.98
2023-05-20T17:00:54.043Z,13.45
2023-05-20T17:03:22.735Z,14.05
2023-05-20T17:05:50.984Z,15.75
2023-05-20T17:08:26.374Z,13.35
2023-05-20T17:11:02.721Z,11.93
2023-05-20T17:13:32.122Z,13.80
2023-05-20T17:16:31.710Z,14.50
2023-05-20T17:19:04.155Z,14.20
2023-05-20T17:21:38.530Z,14.13
2023-05-20T17:24:20.245Z,14.52
2023-05-20T17:26:49.627Z,13.00
2023-05-20T17:29:25.137Z,12.38
2023-05-20T17:32:06.754Z,13.40
2023-05-20T17:34:54.228Z,16.77
2023-05-20T17:37:24.173Z,13.25
2023-05-20T17:39:58.494Z,13.13
2023-05-20T17:42:37.178Z,12.82
2023-05-20T17:45:07.830Z,12.35
2023-05-20T17:47:52.738Z,13.13
2023-05-20T17:50:38.369Z,14.57
2023-05-20T17:53:24.004Z,15.18
2023-05-20T17:56:11.270Z,13.15
2023-05-20T17:58:50.190Z,14.35
2023-05-20T18:01:24.918Z,13.68
2023-05-20T18:04:15.822Z,14.30
2023-05-20T18:07:14.889Z,17.17
2023-05-20T18:09:44.204Z,14.63
2023-05-20T18:12:13.410Z,15.18
2023-05-20T18:14:55.089Z,14.75
2023-05-20T18:17:24.574Z,13.27
2023-05-20T18:19:56.802Z,11.23
2023-05-20T18:22:30.034Z,15.40
2023-05-20T18:25:20.920Z,12.43
2023-05-20T18:27:52.330Z,12.38
2023-05-20T18:30:30.217Z,14.95
2023-05-20T18:33:02.839Z,15.00
2023-05-20T18:35:34.142Z,18.13
2023-05-20T18:41:01.347Z,15.20
2023-05-20T18:43:29.933Z,13.32
2023-05-20T18:46:00.478Z,13.82
2023-05-20T18:48:45.534Z,13.63
2023-05-20T18:51:13.573Z,13.43
2023-05-20T18:53:43.809Z,14.07
2023-05-20T18:56:12.374Z,15.40
2023-05-20T18:58:43.722Z,19.52
2023-05-20T19:01:15.080Z,14.30
2023-05-20T19:03:48.724Z,14.68
2023-05-20T19:06:20.883Z,17.98
2023-05-20T19:08:50.959Z,15.15
2023-05-20T19:11:26.412Z,20.35
2023-05-20T19:14:08.851Z,17.88
2023-05-20T19:16:43.968Z,16.55
2023-05-20T19:19:12.246Z,18.73
2023-05-20T19:21:45.836Z,15.02
2023-05-20T19:24:19.101Z,15.25
2023-05-20T19:26:55.292Z,16.63
2023-05-20T19:29:26.482Z,18.40
2023-05-20T19:32:01.166Z,16.63
2023-05-20T19:34:34.127Z,17.25
2023-05-20T19:37:08.663Z,15.32
2023-05-20T19:39:38.452Z,11.95
2023-05-20T19:42:25.147Z,12.32
2023-05-20T19:44:57.427Z,13.82
2023-05-20T19:47:57.717Z,13.40
2023-05-20T19:50:44.123Z,14.40
2023-05-20T19:53:13.351Z,13.90
2023-05-20T19:55:42.501Z,14.43
2023-05-20T19:58:29.762Z,14.98
2023-05-20T20:01:04.466Z,14.32
2023-05-20T20:03:44.515Z,12.02
2023-05-20T20:06:13.894Z,10.75
2023-05-20T20:08:52.029Z,12.52
2023-05-20T20:11:41.029Z,16.25
2023-05-20T20:14:11.187Z,13.63
2023-05-20T20:16:43.877Z,10.88
2023-05-20T20:19:27.820Z,9.55
2023-05-20T20:22:15.266Z,11.60
2023-05-20T20:24:49.556Z,9.82
2023-05-20T20:27:25.021Z,9.85
2023-05-20T20:29:54.451Z,12.07
2023-05-20T20:32:54.961Z,10.93
2023-05-20T20:35:34.734Z,11.23
2023-05-20T20:38:16.894Z,9.95
2023-05-20T20:41:05.420Z,10.25
2023-05-20T20:43:50.051Z,8.90
2023-05-20T20:46:30.809Z,9.88
2023-05-20T20:52:17.520Z,8.00
2023-05-20T20:54:47.832Z,7.60
2023-05-20T20:57:23.616Z,6.07
2023-05-20T21:00:27.955Z,6.25
2023-05-20T21:02:59.434Z,6.03
2023-05-20T21:05:29.905Z,7.35
2023-05-20T21:08:00.929Z,11.87
2023-05-20T21:10:31.249Z,7.80
2023-05-20T21:13:02.591Z,7.17
2023-05-20T21:18:09.436Z,5.25
2023-05-20T21:20:43.854Z,6.15
2023-05-20T21:23:41.245Z,7.80
2023-05-20T21:26:28.205Z,6.95
2023-05-20T21:29:01.549Z,7.18
2023-05-20T21:31:30.822Z,6.32
2023-05-20T21:33:59.528Z,6.47
2023-05-20T21:36:59.496Z,9.75
2023-05-20T21:39:27.776Z,5.40
2023-05-20T21:42:11.279Z,6.50
2023-05-20T21:47:58.358Z,7.90
2023-05-20T21:50:31.691Z,6.30
2023-05-20T21:53:00.986Z,7.15
2023-05-20T21:55:48.385Z,7.70
2023-05-20T21:58:27.926Z,6.13
2023-05-20T22:01:19.658Z,7.43
2023-05-20T22:04:08.457Z,6.88
2023-05-20T22:06:47.006Z,6.45
2023-05-20T22:09:18.564Z,9.18
2023-05-20T22:11:52.557Z,7.40
2023-05-20T22:14:23.747Z,5.63
2023-05-20T22:16:55.952Z,5.88
2023-05-20T22:19:36.609Z,6.60
2023-05-20T22:22:08.075Z,6.60
2023-05-20T22:24:57.207Z,11.55
2023-05-20T22:27:26.152Z,9.20
2023-05-20T22:30:39.198Z,6.78
2023-05-20T22:33:18.246Z,11.05
2023-05-20T22:35:59.609Z,7.45
2023-05-20T22:41:10.815Z,6.78
2023-05-20T22:43:40.505Z,8.57
2023-05-20T22:46:19.248Z,9.27
2023-05-20T22:48:59.815Z,8.23
2023-05-20T22:51:28.052Z,7.60
2023-05-20T22:54:03.476Z,8.30
2023-05-20T22:57:05.093Z,8.10
2023-05-20T23:02:21.487Z,8.63
2023-05-20T23:05:14.044Z,7.50
2023-05-20T23:07:42.208Z,10.57
2023-05-20T23:10:28.075Z,8.45
2023-05-20T23:13:00.361Z,8.43
2023-05-20T23:15:32.903Z,11.88
2023-05-20T23:18:01.390Z,8.65
2023-05-20T23:20:34.565Z,10.18
2023-05-20T23:23:13.139Z,6.65
2023-05-20T23:25:59.111Z,8.60
2023-05-20T23:28:43.787Z,9.30
2023-05-20T23:31:12.309Z,10.32
2023-05-20T23:33:43.537Z,10.02
2023-05-20T23:39:19.309Z,12.32
2023-05-20T23:42:03.365Z,9.45
2023-05-20T23:50:42.780Z,11.52
2023-05-20T23:53:12.211Z,10.63
2023-05-20T23:55:46.787Z,10.30
2023-05-20T23:58:17.371Z,12.95
